Time;durP1;ratioP1;P1;durP2;ratioP2;P2;SDS_P1;SDS_P2;PMS_P1;PMS_P2;Temp;Humidity;BMP_temperature;BMP_pressure;BME280_temperature;BME280_humidity;BME280_pressure;Samples;Min_cycle;Max_cycle;Signal;HPM_P1;HPM_P2
2023/12/04 00:00:41;;;;;;;;;;;17.40;47.60;;;;;;1494796;78;1644;-59
2023/12/04 00:02:43;;;;;;;;;;;17.40;47.60;;;;;;1489803;77;1153;-60
2023/12/04 00:04:45;;;;;;;;;;;17.40;47.60;;;;;;1501541;77;708;-59
2023/12/04 00:06:47;;;;;;;;;;;17.40;47.60;;;;;;1508706;77;688;-61
2023/12/04 00:08:49;;;;;;;;;;;17.40;47.60;;;;;;1507095;77;757;-59
2023/12/04 00:10:51;;;;;;;;;;;17.40;47.60;;;;;;1498761;77;734;-59
2023/12/04 00:12:53;;;;;;;;;;;17.50;47.80;;;;;;1511327;77;1925;-59
2023/12/04 00:14:55;;;;;;;;;;;17.40;47.60;;;;;;1491311;78;1713;-58
2023/12/04 00:16:57;;;;;;;;;;;17.40;47.60;;;;;;1506857;77;666;-59
2023/12/04 00:18:59;;;;;;;;;;;17.40;47.60;;;;;;1481194;78;714;-59
2023/12/04 00:21:01;;;;;;;;;;;17.40;47.60;;;;;;1507600;77;699;-60
2023/12/04 00:23:03;;;;;;;;;;;17.40;47.60;;;;;;1489491;79;1175;-59
2023/12/04 00:25:06;;;;;;;;;;;17.50;47.70;;;;;;1481222;78;675;-61
2023/12/04 00:27:08;;;;;;;;;;;17.40;47.60;;;;;;1467716;79;1562;-59
2023/12/04 00:29:10;;;;;;;;;;;17.40;47.60;;;;;;1546085;76;751;-60
2023/12/04 00:31:12;;;;;;;;;;;17.40;47.70;;;;;;1543344;76;718;-60
2023/12/04 00:33:14;;;;;;;;;;;17.40;47.60;;;;;;1536515;76;1920;-60
2023/12/04 00:35:15;;;;;;;;;;;17.40;47.60;;;;;;1535159;76;697;-60
2023/12/04 00:37:17;;;;;;;;;;;17.50;47.80;;;;;;1540181;76;675;-61
2023/12/04 00:39:19;;;;;;;;;;;17.40;47.60;;;;;;1535219;76;620;-59
2023/12/04 00:41:21;;;;;;;;;;;17.40;47.60;;;;;;1543559;76;1539;-59
2023/12/04 00:43:23;;;;;;;;;;;17.40;47.60;;;;;;1541979;76;1125;-59
2023/12/04 00:45:25;;;;;;;;;;;17.40;47.60;;;;;;1549724;75;676;-56
2023/12/04 00:47:27;;;;;;;;;;;17.40;47.70;;;;;;1547830;76;723;-57
2023/12/04 00:49:29;;;;;;;;;;;17.40;47.60;;;;;;1541279;76;740;-59
2023/12/04 00:51:33;;;;;;;;;;;17.40;47.60;;;;;;1540455;76;680;-59
2023/12/04 00:53:34;;;;;;;;;;;17.40;47.60;;;;;;1540334;76;2019;-58
2023/12/04 00:55:37;;;;;;;;;;;17.40;47.60;;;;;;1541627;76;1558;-59
2023/12/04 00:57:38;;;;;;;;;;;17.40;47.70;;;;;;1511103;77;710;-58
2023/12/04 00:59:40;;;;;;;;;;;17.40;47.60;;;;;;1504713;78;800;-58
2023/12/04 01:01:42;;;;;;;;;;;17.40;47.60;;;;;;1474203;78;713;-57
2023/12/04 01:03:44;;;;;;;;;;;17.40;47.70;;;;;;1508531;77;1094;-60
2023/12/04 01:05:46;;;;;;;;;;;17.40;47.70;;;;;;1504541;78;883;-61
2023/12/04 01:07:48;;;;;;;;;;;17.30;47.60;;;;;;1498661;77;683;-59
2023/12/04 01:09:50;;;;;;;;;;;17.40;47.70;;;;;;1503900;78;1530;-61
2023/12/04 01:11:54;;;;;;;;;;;17.40;47.60;;;;;;1527451;77;760;-58
2023/12/04 01:13:56;;;;;;;;;;;17.50;47.80;;;;;;1506195;79;1945;-61
2023/12/04 01:15:58;;;;;;;;;;;17.40;47.70;;;;;;1513045;77;761;-59
2023/12/04 01:18:00;;;;;;;;;;;17.40;47.60;;;;;;1504327;78;710;-57
2023/12/04 01:20:02;;;;;;;;;;;17.40;47.70;;;;;;1498532;78;670;-59
2023/12/04 01:22:04;;;;;;;;;;;17.40;47.60;;;;;;1527554;77;713;-58
2023/12/04 01:24:06;;;;;;;;;;;17.40;47.60;;;;;;1517727;77;1382;-60
2023/12/04 01:26:08;;;;;;;;;;;17.40;47.70;;;;;;1519918;77;891;-61
2023/12/04 01:28:09;;;;;;;;;;;17.40;47.70;;;;;;1503717;77;791;-61
2023/12/04 01:30:13;;;;;;;;;;;17.40;47.70;;;;;;1502162;78;731;-59
2023/12/04 01:32:15;;;;;;;;;;;17.40;47.70;;;;;;1527916;77;753;-59
2023/12/04 01:34:17;;;;;;;;;;;17.40;47.70;;;;;;1532242;76;1948;-60
2023/12/04 01:36:19;;;;;;;;;;;17.40;47.70;;;;;;1525476;76;719;-58
2023/12/04 01:38:21;;;;;;;;;;;17.40;47.60;;;;;;1533424;76;1310;-59
2023/12/04 01:40:23;;;;;;;;;;;17.40;47.60;;;;;;1525768;76;678;-58
2023/12/04 01:42:25;;;;;;;;;;;17.40;47.60;;;;;;1530119;76;1142;-55
2023/12/04 01:44:27;;;;;;;;;;;17.40;47.70;;;;;;1527003;77;596;-60
2023/12/04 01:46:29;;;;;;;;;;;17.40;47.60;;;;;;1553765;75;749;-60
2023/12/04 01:48:31;;;;;;;;;;;17.40;47.60;;;;;;1555443;76;682;-56
2023/12/04 01:50:33;;;;;;;;;;;17.40;47.60;;;;;;1556697;75;711;-59
2023/12/04 01:52:35;;;;;;;;;;;17.40;47.60;;;;;;1558192;75;1316;-57
2023/12/04 01:54:37;;;;;;;;;;;17.40;47.60;;;;;;1563385;75;1918;-59
2023/12/04 01:56:39;;;;;;;;;;;17.40;47.60;;;;;;1559215;76;761;-57
2023/12/04 01:58:41;;;;;;;;;;;17.50;47.70;;;;;;1548684;76;669;-59
2023/12/04 02:00:42;;;;;;;;;;;17.40;47.60;;;;;;1552812;75;720;-56
2023/12/04 02:02:44;;;;;;;;;;;17.40;47.60;;;;;;1557152;76;1113;-59
2023/12/04 02:04:46;;;;;;;;;;;17.40;47.60;;;;;;1524985;76;1078;-59
2023/12/04 02:06:48;;;;;;;;;;;17.40;47.60;;;;;;1553202;75;1567;-59
2023/12/04 02:08:50;;;;;;;;;;;17.40;47.60;;;;;;1545391;75;752;-58
2023/12/04 02:10:52;;;;;;;;;;;17.40;47.60;;;;;;1552772;75;697;-59
2023/12/04 02:12:54;;;;;;;;;;;17.30;47.50;;;;;;1543232;75;1201;-60
2023/12/04 02:14:56;;;;;;;;;;;17.40;47.60;;;;;;1551440;75;1932;-57
2023/12/04 02:16:58;;;;;;;;;;;17.30;47.60;;;;;;1556396;75;595;-57
2023/12/04 02:19:00;;;;;;;;;;;17.40;47.60;;;;;;1554349;75;694;-56
2023/12/04 02:21:02;;;;;;;;;;;17.40;47.60;;;;;;1554411;76;1389;-58
2023/12/04 02:23:04;;;;;;;;;;;17.40;47.60;;;;;;1557848;76;1139;-59
2023/12/04 02:25:06;;;;;;;;;;;17.40;47.60;;;;;;1556617;75;783;-60
2023/12/04 02:27:09;;;;;;;;;;;17.40;47.60;;;;;;1549619;75;843;-57
2023/12/04 02:29:12;;;;;;;;;;;17.40;47.60;;;;;;1548568;75;660;-58
2023/12/04 02:31:13;;;;;;;;;;;17.30;47.60;;;;;;1554332;76;799;-58
2023/12/04 02:33:15;;;;;;;;;;;17.40;47.60;;;;;;1548089;76;1158;-60
2023/12/04 02:35:19;;;;;;;;;;;17.40;47.50;;;;;;1545885;75;1928;-60
2023/12/04 02:37:21;;;;;;;;;;;17.40;47.60;;;;;;1544176;75;706;-61
2023/12/04 02:39:23;;;;;;;;;;;17.40;47.60;;;;;;1555447;76;643;-58
2023/12/04 02:41:24;;;;;;;;;;;17.30;47.60;;;;;;1553167;75;702;-60
2023/12/04 02:43:26;;;;;;;;;;;17.40;47.60;;;;;;1547694;75;1152;-59
2023/12/04 02:45:28;;;;;;;;;;;17.40;47.50;;;;;;1554078;75;669;-58
2023/12/04 02:47:30;;;;;;;;;;;17.40;47.50;;;;;;1557080;75;672;-57
2023/12/04 02:49:32;;;;;;;;;;;17.40;47.50;;;;;;1551560;75;1280;-59
2023/12/04 02:51:34;;;;;;;;;;;17.30;47.50;;;;;;1553252;76;702;-59
2023/12/04 02:53:36;;;;;;;;;;;17.30;47.50;;;;;;1553983;76;1139;-60
2023/12/04 02:55:38;;;;;;;;;;;17.40;47.50;;;;;;1555939;76;1952;-60
2023/12/04 02:57:39;;;;;;;;;;;17.40;47.50;;;;;;1551000;75;710;-59
2023/12/04 02:59:41;;;;;;;;;;;17.30;47.50;;;;;;1519077;77;866;-61
2023/12/04 03:01:43;;;;;;;;;;;17.40;47.50;;;;;;1484281;78;1546;-58
2023/12/04 03:03:45;;;;;;;;;;;17.40;47.50;;;;;;1488102;78;1136;-59
2023/12/04 03:05:47;;;;;;;;;;;17.40;47.40;;;;;;1516568;77;1101;-59
2023/12/04 03:07:49;;;;;;;;;;;17.30;47.50;;;;;;1515048;77;683;-56
2023/12/04 03:09:51;;;;;;;;;;;17.40;47.50;;;;;;1519087;77;693;-60
2023/12/04 03:11:53;;;;;;;;;;;17.40;47.40;;;;;;1484822;78;704;-61
2023/12/04 03:13:54;;;;;;;;;;;17.40;47.40;;;;;;1493353;78;1936;-61
2023/12/04 03:15:56;;;;;;;;;;;17.40;47.40;;;;;;1517177;76;1366;-60
2023/12/04 03:17:59;;;;;;;;;;;17.40;47.40;;;;;;1525993;77;702;-57
2023/12/04 03:20:00;;;;;;;;;;;17.30;47.50;;;;;;1556216;75;712;-57
2023/12/04 03:22:02;;;;;;;;;;;17.40;47.40;;;;;;1557476;75;731;-59
2023/12/04 03:24:04;;;;;;;;;;;17.30;47.40;;;;;;1512052;77;1194;-60
2023/12/04 03:26:06;;;;;;;;;;;17.40;47.40;;;;;;1492974;79;806;-59
2023/12/04 03:28:08;;;;;;;;;;;17.30;47.40;;;;;;1495852;79;665;-57
2023/12/04 03:30:10;;;;;;;;;;;17.30;47.40;;;;;;1491616;78;1536;-58
2023/12/04 03:32:12;;;;;;;;;;;17.30;47.40;;;;;;1513242;77;699;-59
2023/12/04 03:34:14;;;;;;;;;;;17.30;47.40;;;;;;1490806;79;1944;-61
2023/12/04 03:36:16;;;;;;;;;;;17.30;47.40;;;;;;1493261;78;768;-62
2023/12/04 03:38:18;;;;;;;;;;;17.30;47.40;;;;;;1476420;78;682;-60
2023/12/04 03:40:20;;;;;;;;;;;17.30;47.40;;;;;;1500525;78;723;-60
2023/12/04 03:42:22;;;;;;;;;;;17.30;47.40;;;;;;1497681;77;1117;-61
2023/12/04 03:44:24;;;;;;;;;;;17.30;47.40;;;;;;1491031;78;1580;-57
2023/12/04 03:46:25;;;;;;;;;;;17.30;47.40;;;;;;1496825;77;1031;-57
2023/12/04 03:48:27;;;;;;;;;;;17.40;47.30;;;;;;1491336;77;681;-58
2023/12/04 03:50:29;;;;;;;;;;;17.40;47.40;;;;;;1498491;78;699;-60
2023/12/04 03:52:31;;;;;;;;;;;17.30;47.40;;;;;;1489090;78;1156;-59
2023/12/04 03:54:33;;;;;;;;;;;17.30;47.30;;;;;;1502165;77;1942;-59
2023/12/04 03:56:35;;;;;;;;;;;17.30;47.40;;;;;;1507509;77;762;-58
2023/12/04 03:58:38;;;;;;;;;;;17.40;47.30;;;;;;1500514;77;1571;-59
2023/12/04 04:00:43;;;;;;;;;;;17.30;47.30;;;;;;1515357;77;664;-60
2023/12/04 04:02:43;;;;;;;;;;;17.30;47.40;;;;;;1499921;78;1461;-58
2023/12/04 04:04:45;;;;;;;;;;;17.30;47.40;;;;;;1496406;78;720;-59
2023/12/04 04:06:47;;;;;;;;;;;17.30;47.30;;;;;;1496847;77;1082;-59
2023/12/04 04:08:49;;;;;;;;;;;17.30;47.30;;;;;;1505381;77;754;-56
2023/12/04 04:10:51;;;;;;;;;;;17.30;47.30;;;;;;1503579;78;689;-59
2023/12/04 04:12:53;;;;;;;;;;;17.40;47.30;;;;;;1503613;77;1562;-58
2023/12/04 04:14:55;;;;;;;;;;;17.30;47.30;;;;;;1503035;78;1935;-56
2023/12/04 04:16:57;;;;;;;;;;;17.40;47.30;;;;;;1498833;78;810;-59
2023/12/04 04:18:58;;;;;;;;;;;17.30;47.30;;;;;;1499218;78;675;-56
2023/12/04 04:21:01;;;;;;;;;;;17.30;47.30;;;;;;1504166;77;686;-56
2023/12/04 04:23:03;;;;;;;;;;;17.30;47.30;;;;;;1510493;77;1135;-55
2023/12/04 04:25:05;;;;;;;;;;;17.30;47.30;;;;;;1493651;77;692;-59
2023/12/04 04:27:07;;;;;;;;;;;17.40;47.20;;;;;;1499246;77;1578;-59
2023/12/04 04:29:09;;;;;;;;;;;17.30;47.30;;;;;;1492527;77;716;-60
2023/12/04 04:31:11;;;;;;;;;;;17.40;47.30;;;;;;1504699;77;792;-60
2023/12/04 04:33:13;;;;;;;;;;;17.30;47.30;;;;;;1504087;78;1131;-56
2023/12/04 04:35:15;;;;;;;;;;;17.30;47.30;;;;;;1499437;78;1923;-60
2023/12/04 04:37:17;;;;;;;;;;;17.30;47.30;;;;;;1515491;77;699;-56
2023/12/04 04:39:19;;;;;;;;;;;17.30;47.30;;;;;;1495598;77;687;-60
2023/12/04 04:41:21;;;;;;;;;;;17.30;47.30;;;;;;1505151;77;1585;-58
2023/12/04 04:43:22;;;;;;;;;;;17.30;47.30;;;;;;1508124;77;1150;-59
2023/12/04 04:45:24;;;;;;;;;;;17.30;47.40;;;;;;1504068;77;796;-58
2023/12/04 04:47:26;;;;;;;;;;;17.30;47.30;;;;;;1498640;77;776;-60
2023/12/04 04:49:28;;;;;;;;;;;17.30;47.30;;;;;;1496312;78;794;-58
2023/12/04 04:51:30;;;;;;;;;;;17.30;47.30;;;;;;1504307;77;677;-58
2023/12/04 04:53:32;;;;;;;;;;;17.30;47.30;;;;;;1516012;77;1144;-59
2023/12/04 04:55:34;;;;;;;;;;;17.30;47.30;;;;;;1495130;78;1927;-59
2023/12/04 04:57:36;;;;;;;;;;;17.30;47.30;;;;;;1494261;78;726;-58
2023/12/04 04:59:38;;;;;;;;;;;17.30;47.30;;;;;;1496037;78;743;-59
2023/12/04 05:01:40;;;;;;;;;;;17.30;47.40;;;;;;1516131;77;730;-60
2023/12/04 05:03:42;;;;;;;;;;;17.30;47.40;;;;;;1522478;77;1142;-60
2023/12/04 05:05:44;;;;;;;;;;;17.30;47.30;;;;;;1494864;78;1030;-59
2023/12/04 05:07:45;;;;;;;;;;;17.30;47.30;;;;;;1500621;78;690;-59
2023/12/04 05:09:47;;;;;;;;;;;17.30;47.40;;;;;;1506490;78;1489;-58
2023/12/04 05:11:49;;;;;;;;;;;17.30;47.30;;;;;;1494538;78;632;-56
2023/12/04 05:13:51;;;;;;;;;;;17.30;47.30;;;;;;1562759;75;1134;-57
2023/12/04 05:15:53;;;;;;;;;;;17.30;47.30;;;;;;1560074;75;1913;-57
2023/12/04 05:17:55;;;;;;;;;;;17.30;47.30;;;;;;1564440;75;721;-57
2023/12/04 05:19:57;;;;;;;;;;;17.30;47.30;;;;;;1561958;75;745;-57
2023/12/04 05:21:59;;;;;;;;;;;17.30;47.30;;;;;;1562045;75;663;-57
2023/12/04 05:24:01;;;;;;;;;;;17.30;47.30;;;;;;1565781;75;1548;-58
2023/12/04 05:26:03;;;;;;;;;;;17.30;47.30;;;;;;1566047;75;556;-56
2023/12/04 05:28:05;;;;;;;;;;;17.20;47.10;;;;;;1559963;75;682;-57
2023/12/04 05:30:07;;;;;;;;;;;17.30;47.30;;;;;;1559890;75;717;-59
2023/12/04 05:32:09;;;;;;;;;;;17.30;47.20;;;;;;1560900;75;782;-59
2023/12/04 05:34:11;;;;;;;;;;;17.30;47.20;;;;;;1558691;75;1113;-60
2023/12/04 05:36:13;;;;;;;;;;;17.30;47.20;;;;;;1559867;75;1939;-57
2023/12/04 05:38:15;;;;;;;;;;;17.30;47.20;;;;;;1555027;75;1295;-59
2023/12/04 05:40:17;;;;;;;;;;;17.30;47.20;;;;;;1556840;75;673;-60
2023/12/04 05:42:19;;;;;;;;;;;17.30;47.20;;;;;;1562156;75;1236;-55
2023/12/04 05:44:21;;;;;;;;;;;17.30;47.20;;;;;;1564412;75;647;-59
2023/12/04 05:46:22;;;;;;;;;;;17.30;47.30;;;;;;1562779;75;746;-57
2023/12/04 05:48:24;;;;;;;;;;;17.30;47.20;;;;;;1561013;75;688;-59
2023/12/04 05:50:26;;;;;;;;;;;17.30;47.20;;;;;;1559333;75;711;-58
2023/12/04 05:52:28;;;;;;;;;;;17.40;47.20;;;;;;1561019;75;1490;-56
2023/12/04 05:54:30;;;;;;;;;;;17.30;47.20;;;;;;1554996;75;745;-56
2023/12/04 05:56:32;;;;;;;;;;;17.30;47.20;;;;;;1565469;75;1942;-60
2023/12/04 05:58:34;;;;;;;;;;;17.30;47.30;;;;;;1557770;75;732;-59
2023/12/04 06:00:36;;;;;;;;;;;17.30;47.20;;;;;;1559588;75;667;-60
2023/12/04 06:02:38;;;;;;;;;;;17.30;47.20;;;;;;1565203;75;1161;-60
2023/12/04 06:04:39;;;;;;;;;;;17.40;47.20;;;;;;1563755;75;1473;-59
2023/12/04 06:06:41;;;;;;;;;;;17.30;47.20;;;;;;1565071;75;1073;-59
2023/12/04 06:08:43;;;;;;;;;;;17.30;47.20;;;;;;1561554;75;709;-60
2023/12/04 06:10:46;;;;;;;;;;;17.30;47.20;;;;;;1563818;75;659;-60
2023/12/04 06:12:48;;;;;;;;;;;17.30;47.20;;;;;;1563316;74;1163;-59
2023/12/04 06:14:50;;;;;;;;;;;17.30;47.20;;;;;;1561398;75;755;-57
2023/12/04 06:16:53;;;;;;;;;;;17.30;47.10;;;;;;1562258;75;1914;-59
2023/12/04 06:18:55;;;;;;;;;;;17.30;47.20;;;;;;1564255;75;1528;-59
2023/12/04 06:20:57;;;;;;;;;;;17.30;47.20;;;;;;1563862;75;793;-58
2023/12/04 06:22:59;;;;;;;;;;;17.30;47.20;;;;;;1569307;75;1150;-59
2023/12/04 06:25:01;;;;;;;;;;;17.30;47.20;;;;;;1568924;75;670;-59
2023/12/04 06:27:05;;;;;;;;;;;17.30;47.10;;;;;;1565649;75;699;-58
2023/12/04 06:29:06;;;;;;;;;;;17.30;47.20;;;;;;1566393;75;1064;-56
2023/12/04 06:31:09;;;;;;;;;;;17.20;47.10;;;;;;1558153;75;750;-61
2023/12/04 06:33:12;;;;;;;;;;;17.30;47.20;;;;;;1561897;75;1347;-60
2023/12/04 06:35:15;;;;;;;;;;;17.30;47.20;;;;;;1566457;75;1916;-59
2023/12/04 06:37:17;;;;;;;;;;;17.40;47.20;;;;;;1562017;75;702;-61
2023/12/04 06:39:19;;;;;;;;;;;17.30;47.20;;;;;;1563568;75;665;-61
2023/12/04 06:41:21;;;;;;;;;;;17.20;47.10;;;;;;1560822;75;639;-61
2023/12/04 06:43:23;;;;;;;;;;;17.30;47.20;;;;;;1570110;75;1148;-60
2023/12/04 06:45:26;;;;;;;;;;;17.20;47.10;;;;;;1566264;75;764;-57
2023/12/04 06:47:28;;;;;;;;;;;17.30;47.20;;;;;;1565978;75;1312;-58
2023/12/04 06:49:30;;;;;;;;;;;17.30;47.20;;;;;;1566090;75;619;-61
2023/12/04 06:51:32;;;;;;;;;;;17.30;47.20;;;;;;1564819;75;662;-58
2023/12/04 06:53:34;;;;;;;;;;;17.20;47.10;;;;;;1565773;75;1140;-57
2023/12/04 06:55:36;;;;;;;;;;;17.30;47.10;;;;;;1569580;75;1930;-60
2023/12/04 06:57:38;;;;;;;;;;;17.30;47.20;;;;;;1565996;75;757;-61
2023/12/04 06:59:42;;;;;;;;;;;17.30;47.20;;;;;;1558607;75;775;-59
2023/12/04 07:01:44;;;;;;;;;;;17.30;47.20;;;;;;1568615;75;1473;-59
2023/12/04 07:03:46;;;;;;;;;;;17.20;47.10;;;;;;1567255;75;1084;-59
2023/12/04 07:05:48;;;;;;;;;;;17.30;47.20;;;;;;1566472;75;620;-58
2023/12/04 07:07:50;;;;;;;;;;;17.20;47.00;;;;;;1567083;75;1056;-60
2023/12/04 07:09:51;;;;;;;;;;;17.20;47.00;;;;;;1567925;75;687;-60
2023/12/04 07:11:54;;;;;;;;;;;17.30;47.20;;;;;;1566328;75;680;-59
2023/12/04 07:13:56;;;;;;;;;;;17.30;47.20;;;;;;1536522;77;1190;-59
2023/12/04 07:15:59;;;;;;;;;;;17.20;47.00;;;;;;1532511;76;1940;-61
2023/12/04 07:18:01;;;;;;;;;;;17.20;47.10;;;;;;1560767;75;710;-59
2023/12/04 07:20:06;;;;;;;;;;;17.20;47.00;;;;;;1564759;76;662;-60
2023/12/04 07:22:06;;;;;;;;;;;17.20;45.30;;;;;;1560990;75;1673;-59
2023/12/04 07:24:08;;;;;;;;;;;17.30;46.40;;;;;;1567002;75;1119;-59
2023/12/04 07:26:10;;;;;;;;;;;17.20;46.90;;;;;;1560479;75;732;-60
2023/12/04 07:28:12;;;;;;;;;;;17.30;45.30;;;;;;1566246;75;733;-60
2023/12/04 07:30:14;;;;;;;;;;;17.30;41.80;;;;;;1563454;75;1577;-57
2023/12/04 07:32:17;;;;;;;;;;;17.20;43.90;;;;;;1553011;75;629;-58
2023/12/04 07:34:19;;;;;;;;;;;17.20;45.80;;;;;;1561001;75;839;-59
2023/12/04 07:36:22;;;;;;;;;;;17.30;46.30;;;;;;1565287;74;1932;-58
2023/12/04 07:38:24;;;;;;;;;;;17.30;46.50;;;;;;1563946;74;733;-59
2023/12/04 07:40:26;;;;;;;;;;;17.30;46.50;;;;;;1562082;75;689;-60
2023/12/04 07:42:28;;;;;;;;;;;17.40;46.60;;;;;;1563984;75;1132;-60
2023/12/04 07:44:30;;;;;;;;;;;17.30;46.60;;;;;;1562321;75;1329;-59
2023/12/04 07:46:31;;;;;;;;;;;17.30;46.80;;;;;;1563604;75;899;-59
2023/12/04 07:48:33;;;;;;;;;;;17.30;46.80;;;;;;1564931;75;726;-58
2023/12/04 07:50:37;;;;;;;;;;;17.30;46.80;;;;;;1565387;75;667;-58
2023/12/04 07:52:39;;;;;;;;;;;17.30;46.90;;;;;;1561247;75;2049;-57
2023/12/04 07:54:41;;;;;;;;;;;17.40;46.90;;;;;;1561610;75;711;-57
2023/12/04 07:56:42;;;;;;;;;;;17.30;46.90;;;;;;1566841;74;1942;-57
2023/12/04 07:58:44;;;;;;;;;;;17.30;47.10;;;;;;1564030;75;1694;-59
2023/12/04 08:00:46;;;;;;;;;;;17.40;47.10;;;;;;1554810;74;694;-57
2023/12/04 08:02:48;;;;;;;;;;;17.30;47.20;;;;;;1557817;74;1162;-58
2023/12/04 08:04:50;;;;;;;;;;;17.40;47.10;;;;;;1557515;75;801;-60
2023/12/04 08:06:52;;;;;;;;;;;17.40;47.10;;;;;;1565457;75;589;-58
2023/12/04 08:08:55;;;;;;;;;;;17.30;47.20;;;;;;1552799;75;1050;-58
2023/12/04 08:10:57;;;;;;;;;;;17.40;47.20;;;;;;1545742;76;719;-58
2023/12/04 08:12:59;;;;;;;;;;;17.30;47.30;;;;;;1543452;76;1470;-61
2023/12/04 08:15:01;;;;;;;;;;;17.30;47.30;;;;;;1538966;76;649;-55
2023/12/04 08:17:03;;;;;;;;;;;17.30;47.40;;;;;;1545831;76;1923;-57
2023/12/04 08:19:05;;;;;;;;;;;17.40;47.40;;;;;;1550544;76;734;-59
2023/12/04 08:21:08;;;;;;;;;;;17.40;47.50;;;;;;1546658;76;678;-60
2023/12/04 08:23:09;;;;;;;;;;;17.30;47.50;;;;;;1546540;76;1085;-58
2023/12/04 08:25:12;;;;;;;;;;;17.40;47.60;;;;;;1549204;76;780;-59
2023/12/04 08:27:14;;;;;;;;;;;17.40;47.60;;;;;;1547694;76;646;-60
2023/12/04 08:29:15;;;;;;;;;;;17.40;47.60;;;;;;1550616;76;685;-57
2023/12/04 08:31:17;;;;;;;;;;;17.40;47.70;;;;;;1545389;76;724;-58
2023/12/04 08:33:20;;;;;;;;;;;17.30;47.70;;;;;;1547610;76;1193;-58
2023/12/04 08:35:22;;;;;;;;;;;17.30;47.70;;;;;;1538125;76;766;-58
2023/12/04 08:37:23;;;;;;;;;;;17.40;47.70;;;;;;1543270;76;1935;-57
2023/12/04 08:39:26;;;;;;;;;;;17.40;47.70;;;;;;1542987;76;1538;-59
2023/12/04 08:41:28;;;;;;;;;;;17.30;47.70;;;;;;1543215;76;722;-58
2023/12/04 08:43:30;;;;;;;;;;;17.40;47.70;;;;;;1547017;76;1124;-58
2023/12/04 08:45:33;;;;;;;;;;;17.40;47.70;;;;;;1548798;76;733;-58
2023/12/04 08:47:35;;;;;;;;;;;17.40;47.70;;;;;;1545681;76;697;-59
2023/12/04 08:49:40;;;;;;;;;;;17.40;47.70;;;;;;1540660;76;666;-58
2023/12/04 08:51:40;;;;;;;;;;;17.40;47.70;;;;;;1545509;76;1673;-59
2023/12/04 08:53:42;;;;;;;;;;;17.40;47.70;;;;;;1544427;76;1556;-61
2023/12/04 08:55:44;;;;;;;;;;;17.40;47.80;;;;;;1543341;76;871;-59
2023/12/04 08:57:46;;;;;;;;;;;17.40;47.80;;;;;;1533195;76;1924;-60
2023/12/04 08:59:48;;;;;;;;;;;17.40;47.80;;;;;;1537721;76;714;-60
2023/12/04 09:01:50;;;;;;;;;;;17.40;47.90;;;;;;1543252;76;724;-59
2023/12/04 09:03:52;;;;;;;;;;;17.40;47.90;;;;;;1540130;76;1155;-59
2023/12/04 09:05:55;;;;;;;;;;;17.40;47.80;;;;;;1547157;76;684;-59
2023/12/04 09:07:56;;;;;;;;;;;17.40;47.90;;;;;;1541576;76;1533;-58
2023/12/04 09:09:59;;;;;;;;;;;17.40;47.80;;;;;;1555439;75;696;-58
2023/12/04 09:12:01;;;;;;;;;;;17.40;47.90;;;;;;1553253;74;728;-58
2023/12/04 09:14:02;;;;;;;;;;;17.40;47.90;;;;;;1556899;76;1250;-57
2023/12/04 09:16:05;;;;;;;;;;;17.40;48.00;;;;;;1553220;75;1913;-59
2023/12/04 09:18:06;;;;;;;;;;;17.30;48.00;;;;;;1552628;76;702;-58
2023/12/04 09:20:08;;;;;;;;;;;17.40;48.00;;;;;;1558000;76;719;-59
2023/12/04 09:22:10;;;;;;;;;;;17.30;48.00;;;;;;1555299;76;1561;-60
2023/12/04 09:24:13;;;;;;;;;;;17.40;48.10;;;;;;1555813;76;1105;-58
2023/12/04 09:26:16;;;;;;;;;;;17.40;48.00;;;;;;1548657;75;752;-59
2023/12/04 09:28:18;;;;;;;;;;;17.40;48.00;;;;;;1552062;75;656;-59
2023/12/04 09:30:20;;;;;;;;;;;17.40;48.00;;;;;;1556800;75;788;-59
2023/12/04 09:32:22;;;;;;;;;;;17.40;48.10;;;;;;1553098;76;1247;-58
2023/12/04 09:34:24;;;;;;;;;;;17.40;48.10;;;;;;1556375;75;661;-59
2023/12/04 09:36:25;;;;;;;;;;;17.30;48.10;;;;;;1554744;75;1938;-60
2023/12/04 09:38:27;;;;;;;;;;;17.40;48.10;;;;;;1555387;76;688;-59
2023/12/04 09:40:29;;;;;;;;;;;17.40;48.10;;;;;;1554143;76;744;-56
2023/12/04 09:42:31;;;;;;;;;;;17.40;48.10;;;;;;1549677;76;1152;-59
2023/12/04 09:44:33;;;;;;;;;;;17.40;48.10;;;;;;1551941;75;677;-57
2023/12/04 09:46:35;;;;;;;;;;;17.40;48.10;;;;;;1525277;77;675;-59
2023/12/04 09:48:37;;;;;;;;;;;17.30;43.40;;;;;;1564331;75;706;-59
2023/12/04 09:50:39;;;;;;;;;;;17.30;45.80;;;;;;1560865;75;1556;-58
2023/12/04 09:52:41;;;;;;;;;;;17.30;46.50;;;;;;1562373;75;1124;-60
2023/12/04 09:54:42;;;;;;;;;;;17.30;47.50;;;;;;1565254;75;831;-57
2023/12/04 09:56:44;;;;;;;;;;;17.30;47.60;;;;;;1564974;75;1938;-59
2023/12/04 09:58:46;;;;;;;;;;;17.30;47.60;;;;;;1567211;75;680;-60
2023/12/04 10:00:48;;;;;;;;;;;17.30;47.70;;;;;;1565511;75;676;-59
2023/12/04 10:02:50;;;;;;;;;;;17.30;47.80;;;;;;1567079;74;1157;-59
2023/12/04 10:04:52;;;;;;;;;;;17.30;47.80;;;;;;1562154;74;1562;-58
2023/12/04 10:06:54;;;;;;;;;;;17.30;48.10;;;;;;1552003;74;669;-59
2023/12/04 10:09:00;;;;;;;;;;;17.40;48.10;;;;;;1566908;75;1118;-59
2023/12/04 10:11:01;;;;;;;;;;;17.30;48.30;;;;;;1562654;75;1330;-60
2023/12/04 10:13:03;;;;;;;;;;;17.30;48.40;;;;;;1571370;75;1207;-58
2023/12/04 10:15:06;;;;;;;;;;;17.40;48.60;;;;;;1568318;75;674;-57
2023/12/04 10:17:17;;;;;;;;;;;17.40;48.60;;;;;;1528064;76;1905;-60
2023/12/04 10:19:23;;;;;;;;;;;17.40;48.70;;;;;;1505611;77;1553;-59
2023/12/04 10:21:26;;;;;;;;;;;17.40;49.00;;;;;;1530667;76;1232;-58
2023/12/04 10:23:39;;;;;;;;;;;17.40;49.00;;;;;;1536488;76;1469;-56
2023/12/04 10:25:40;;;;;;;;;;;17.40;49.20;;;;;;1503752;77;2017;-59
2023/12/04 10:27:43;;;;;;;;;;;17.40;49.40;;;;;;1499450;77;1264;-57
2023/12/04 10:29:48;;;;;;;;;;;17.40;49.40;;;;;;1508309;77;1332;-59
2023/12/04 10:31:52;;;;;;;;;;;17.40;49.40;;;;;;1503545;77;1562;-60
2023/12/04 10:33:54;;;;;;;;;;;17.50;49.40;;;;;;1556185;74;1209;-60
2023/12/04 10:35:56;;;;;;;;;;;17.50;49.50;;;;;;1560898;75;1105;-61
2023/12/04 10:37:59;;;;;;;;;;;17.50;49.40;;;;;;1561996;75;1912;-56
2023/12/04 10:40:01;;;;;;;;;;;17.50;49.50;;;;;;1555431;75;1136;-58
2023/12/04 10:42:03;;;;;;;;;;;17.50;49.30;;;;;;1555936;75;1285;-58
2023/12/04 10:44:05;;;;;;;;;;;17.50;49.30;;;;;;1563080;74;1331;-58
2023/12/04 10:46:07;;;;;;;;;;;17.40;49.20;;;;;;1557563;74;1296;-61
2023/12/04 10:48:10;;;;;;;;;;;17.40;49.20;;;;;;1560844;74;1156;-60
2023/12/04 10:50:12;;;;;;;;;;;17.50;49.30;;;;;;1555018;75;1235;-61
2023/12/04 10:52:14;;;;;;;;;;;17.50;49.20;;;;;;1559013;74;1490;-61
2023/12/04 10:54:16;;;;;;;;;;;17.50;49.20;;;;;;1561404;74;1313;-59
2023/12/04 10:56:22;;;;;;;;;;;17.50;49.20;;;;;;1548244;75;1307;-59
2023/12/04 10:58:24;;;;;;;;;;;17.50;49.20;;;;;;1560998;74;1918;-59
2023/12/04 11:00:27;;;;;;;;;;;17.50;49.20;;;;;;1562136;75;1520;-58
2023/12/04 11:02:29;;;;;;;;;;;17.50;49.20;;;;;;1553277;74;1150;-58
2023/12/04 11:04:32;;;;;;;;;;;17.50;49.20;;;;;;1557151;75;719;-55
2023/12/04 11:06:35;;;;;;;;;;;17.50;49.10;;;;;;1549488;75;694;-59
2023/12/04 11:08:38;;;;;;;;;;;17.50;49.10;;;;;;1560090;75;700;-59
2023/12/04 11:10:44;;;;;;;;;;;17.50;49.10;;;;;;1555080;75;676;-59
2023/12/04 11:12:46;;;;;;;;;;;17.50;49.20;;;;;;1556057;75;1846;-59
2023/12/04 11:14:49;;;;;;;;;;;17.50;49.10;;;;;;1565727;75;1599;-59
2023/12/04 11:16:54;;;;;;;;;;;17.50;49.10;;;;;;1555672;75;1926;-60
2023/12/04 11:18:57;;;;;;;;;;;17.50;49.00;;;;;;1554993;74;1868;-59
2023/12/04 11:20:59;;;;;;;;;;;17.50;49.10;;;;;;1553149;74;1116;-60
2023/12/04 11:23:01;;;;;;;;;;;17.50;49.10;;;;;;1555947;75;1136;-57
2023/12/04 11:25:05;;;;;;;;;;;17.50;49.10;;;;;;1551802;75;712;-60
2023/12/04 11:27:07;;;;;;;;;;;17.50;49.00;;;;;;1560093;74;744;-58
2023/12/04 11:29:09;;;;;;;;;;;17.50;49.10;;;;;;1552822;74;1536;-61
2023/12/04 11:31:11;;;;;;;;;;;17.50;49.00;;;;;;1559350;74;675;-59
2023/12/04 11:33:13;;;;;;;;;;;17.50;49.00;;;;;;1548073;75;1186;-60
2023/12/04 11:35:17;;;;;;;;;;;17.50;49.10;;;;;;1479951;79;818;-60
2023/12/04 11:37:20;;;;;;;;;;;17.50;49.10;;;;;;1494226;78;1900;-61
2023/12/04 11:39:22;;;;;;;;;;;17.50;49.10;;;;;;1488774;78;725;-60
2023/12/04 11:41:25;;;;;;;;;;;17.50;49.00;;;;;;1491974;78;926;-60
2023/12/04 11:43:27;;;;;;;;;;;17.50;49.10;;;;;;1489719;78;1565;-60
2023/12/04 11:45:31;;;;;;;;;;;17.50;49.10;;;;;;1497974;78;789;-61
2023/12/04 11:47:35;;;;;;;;;;;17.40;43.80;;;;;;1496583;78;957;-61
2023/12/04 11:49:37;;;;;;;;;;;17.40;45.50;;;;;;1476480;79;1266;-61
2023/12/04 11:51:46;;;;;;;;;;;17.40;46.50;;;;;;1547623;75;757;-60
2023/12/04 11:53:47;;;;;;;;;;;17.40;47.50;;;;;;1533613;75;1672;-60
2023/12/04 11:55:49;;;;;;;;;;;17.40;48.10;;;;;;1540553;75;787;-62
2023/12/04 11:57:51;;;;;;;;;;;17.40;48.10;;;;;;1542188;76;1931;-60
2023/12/04 11:59:53;;;;;;;;;;;17.40;48.40;;;;;;1546431;76;903;-61
2023/12/04 12:01:56;;;;;;;;;;;17.40;48.40;;;;;;1526332;77;1251;-60
2023/12/04 12:03:59;;;;;;;;;;;17.40;48.60;;;;;;1545969;75;1156;-61
2023/12/04 12:06:01;;;;;;;;;;;17.40;48.60;;;;;;1538795;76;712;-60